sensor_id;sensor_type;location;lat;lon;timestamp;P1;durP1;ratioP1;P2;durP2;ratioP2
25023;SDS011;13033;50.936;5.334;2023-07-22T00:00:32;11.95;;;7.70;;
25023;SDS011;13033;50.936;5.334;2023-07-22T00:02:58;13.20;;;8.35;;
25023;SDS011;13033;50.936;5.334;2023-07-22T00:05:23;12.23;;;8.40;;
25023;SDS011;13033;50.936;5.334;2023-07-22T00:07:50;11.65;;;7.70;;
25023;SDS011;13033;50.936;5.334;2023-07-22T00:10:16;12.77;;;7.70;;
25023;SDS011;13033;50.936;5.334;2023-07-22T00:12:41;9.60;;;7.63;;
25023;SDS011;13033;50.936;5.334;2023-07-22T00:15:07;13.45;;;7.97;;
25023;SDS011;13033;50.936;5.334;2023-07-22T00:17:33;9.95;;;6.50;;
25023;SDS011;13033;50.936;5.334;2023-07-22T00:19:59;13.50;;;7.95;;
25023;SDS011;13033;50.936;5.334;2023-07-22T00:22:25;14.73;;;7.95;;
25023;SDS011;13033;50.936;5.334;2023-07-22T00:24:52;9.85;;;7.18;;
25023;SDS011;13033;50.936;5.334;2023-07-22T00:27:17;9.90;;;7.70;;
25023;SDS011;13033;50.936;5.334;2023-07-22T00:29:43;12.85;;;7.63;;
25023;SDS011;13033;50.936;5.334;2023-07-22T00:32:09;12.25;;;7.70;;
25023;SDS011;13033;50.936;5.334;2023-07-22T00:34:35;12.52;;;7.82;;
25023;SDS011;13033;50.936;5.334;2023-07-22T00:37:02;14.60;;;7.68;;
25023;SDS011;13033;50.936;5.334;2023-07-22T00:39:28;12.05;;;8.00;;
25023;SDS011;13033;50.936;5.334;2023-07-22T00:41:53;13.23;;;8.05;;
25023;SDS011;13033;50.936;5.334;2023-07-22T00:44:19;12.35;;;7.60;;
25023;SDS011;13033;50.936;5.334;2023-07-22T00:46:44;11.90;;;7.88;;
25023;SDS011;13033;50.936;5.334;2023-07-22T00:49:10;10.48;;;7.60;;
25023;SDS011;13033;50.936;5.334;2023-07-22T00:51:39;14.45;;;8.20;;
25023;SDS011;13033;50.936;5.334;2023-07-22T00:54:05;13.55;;;7.82;;
25023;SDS011;13033;50.936;5.334;2023-07-22T00:56:32;11.68;;;7.63;;
25023;SDS011;13033;50.936;5.334;2023-07-22T00:59:00;13.65;;;7.32;;
25023;SDS011;13033;50.936;5.334;2023-07-22T01:01:27;10.73;;;7.72;;
25023;SDS011;13033;50.936;5.334;2023-07-22T01:03:52;11.52;;;7.38;;
25023;SDS011;13033;50.936;5.334;2023-07-22T01:06:19;11.25;;;7.55;;
25023;SDS011;13033;50.936;5.334;2023-07-22T01:08:45;11.70;;;7.55;;
25023;SDS011;13033;50.936;5.334;2023-07-22T01:11:11;11.52;;;7.55;;
25023;SDS011;13033;50.936;5.334;2023-07-22T01:13:38;10.50;;;7.68;;
25023;SDS011;13033;50.936;5.334;2023-07-22T01:16:05;13.73;;;7.57;;
25023;SDS011;13033;50.936;5.334;2023-07-22T01:18:32;10.50;;;7.35;;
25023;SDS011;13033;50.936;5.334;2023-07-22T01:20:58;9.55;;;7.25;;
25023;SDS011;13033;50.936;5.334;2023-07-22T01:23:24;11.38;;;7.60;;
25023;SDS011;13033;50.936;5.334;2023-07-22T01:25:50;11.35;;;7.82;;
25023;SDS011;13033;50.936;5.334;2023-07-22T01:28:16;11.82;;;8.35;;
25023;SDS011;13033;50.936;5.334;2023-07-22T01:30:42;12.48;;;8.13;;
25023;SDS011;13033;50.936;5.334;2023-07-22T01:33:08;13.15;;;8.25;;
25023;SDS011;13033;50.936;5.334;2023-07-22T01:35:33;11.40;;;7.65;;
25023;SDS011;13033;50.936;5.334;2023-07-22T01:37:59;10.68;;;7.63;;
25023;SDS011;13033;50.936;5.334;2023-07-22T01:40:25;10.32;;;7.47;;
25023;SDS011;13033;50.936;5.334;2023-07-22T01:42:50;12.60;;;8.30;;
25023;SDS011;13033;50.936;5.334;2023-07-22T01:45:16;11.20;;;8.65;;
25023;SDS011;13033;50.936;5.334;2023-07-22T01:47:42;11.52;;;8.23;;
25023;SDS011;13033;50.936;5.334;2023-07-22T01:50:08;12.73;;;8.02;;
25023;SDS011;13033;50.936;5.334;2023-07-22T01:52:35;13.50;;;8.50;;
25023;SDS011;13033;50.936;5.334;2023-07-22T01:55:01;10.40;;;8.13;;
25023;SDS011;13033;50.936;5.334;2023-07-22T01:57:30;12.38;;;8.18;;
25023;SDS011;13033;50.936;5.334;2023-07-22T01:59:56;11.25;;;8.48;;
25023;SDS011;13033;50.936;5.334;2023-07-22T02:02:22;13.40;;;8.30;;
25023;SDS011;13033;50.936;5.334;2023-07-22T02:04:47;16.73;;;8.32;;
25023;SDS011;13033;50.936;5.334;2023-07-22T02:07:13;13.07;;;8.65;;
25023;SDS011;13033;50.936;5.334;2023-07-22T02:09:40;11.25;;;8.35;;
25023;SDS011;13033;50.936;5.334;2023-07-22T02:12:06;12.30;;;7.90;;
25023;SDS011;13033;50.936;5.334;2023-07-22T02:14:32;12.60;;;8.80;;
25023;SDS011;13033;50.936;5.334;2023-07-22T02:16:58;15.13;;;9.20;;
25023;SDS011;13033;50.936;5.334;2023-07-22T02:19:24;11.38;;;8.15;;
25023;SDS011;13033;50.936;5.334;2023-07-22T02:21:49;11.35;;;8.32;;
25023;SDS011;13033;50.936;5.334;2023-07-22T02:24:15;12.60;;;8.65;;
25023;SDS011;13033;50.936;5.334;2023-07-22T02:26:41;13.55;;;9.27;;
25023;SDS011;13033;50.936;5.334;2023-07-22T02:29:06;12.75;;;8.38;;
25023;SDS011;13033;50.936;5.334;2023-07-22T02:31:32;12.68;;;8.85;;
25023;SDS011;13033;50.936;5.334;2023-07-22T02:33:58;13.02;;;9.13;;
25023;SDS011;13033;50.936;5.334;2023-07-22T02:36:24;12.35;;;8.75;;
25023;SDS011;13033;50.936;5.334;2023-07-22T02:38:50;12.50;;;8.88;;
25023;SDS011;13033;50.936;5.334;2023-07-22T02:41:15;15.48;;;9.05;;
25023;SDS011;13033;50.936;5.334;2023-07-22T02:43:41;13.25;;;9.05;;
25023;SDS011;13033;50.936;5.334;2023-07-22T02:46:06;16.20;;;9.90;;
25023;SDS011;13033;50.936;5.334;2023-07-22T02:48:35;14.27;;;8.88;;
25023;SDS011;13033;50.936;5.334;2023-07-22T02:51:05;16.95;;;10.00;;
25023;SDS011;13033;50.936;5.334;2023-07-22T02:53:32;12.77;;;8.90;;
25023;SDS011;13033;50.936;5.334;2023-07-22T02:55:59;13.18;;;9.80;;
25023;SDS011;13033;50.936;5.334;2023-07-22T02:58:25;14.25;;;9.98;;
25023;SDS011;13033;50.936;5.334;2023-07-22T03:00:50;14.07;;;9.88;;
25023;SDS011;13033;50.936;5.334;2023-07-22T03:03:16;14.20;;;9.90;;
25023;SDS011;13033;50.936;5.334;2023-07-22T03:05:44;13.38;;;9.55;;
25023;SDS011;13033;50.936;5.334;2023-07-22T03:08:09;17.25;;;10.90;;
25023;SDS011;13033;50.936;5.334;2023-07-22T03:10:35;15.52;;;10.55;;
25023;SDS011;13033;50.936;5.334;2023-07-22T03:13:01;16.58;;;10.80;;
25023;SDS011;13033;50.936;5.334;2023-07-22T03:15:28;16.00;;;10.50;;
25023;SDS011;13033;50.936;5.334;2023-07-22T03:17:55;14.55;;;9.93;;
25023;SDS011;13033;50.936;5.334;2023-07-22T03:20:21;17.67;;;10.52;;
25023;SDS011;13033;50.936;5.334;2023-07-22T03:22:48;15.40;;;10.73;;
25023;SDS011;13033;50.936;5.334;2023-07-22T03:25:14;19.13;;;11.05;;
25023;SDS011;13033;50.936;5.334;2023-07-22T03:27:42;18.77;;;10.80;;
25023;SDS011;13033;50.936;5.334;2023-07-22T03:30:10;15.45;;;10.90;;
25023;SDS011;13033;50.936;5.334;2023-07-22T03:35:07;16.90;;;10.85;;
25023;SDS011;13033;50.936;5.334;2023-07-22T03:37:37;18.48;;;11.23;;
25023;SDS011;13033;50.936;5.334;2023-07-22T03:40:07;18.45;;;11.07;;
25023;SDS011;13033;50.936;5.334;2023-07-22T03:42:39;22.15;;;11.18;;
25023;SDS011;13033;50.936;5.334;2023-07-22T03:45:06;16.95;;;10.85;;
25023;SDS011;13033;50.936;5.334;2023-07-22T03:47:33;15.73;;;11.45;;
25023;SDS011;13033;50.936;5.334;2023-07-22T03:49:59;18.58;;;11.65;;
25023;SDS011;13033;50.936;5.334;2023-07-22T03:52:24;18.33;;;11.45;;
25023;SDS011;13033;50.936;5.334;2023-07-22T03:54:50;16.23;;;10.95;;
25023;SDS011;13033;50.936;5.334;2023-07-22T03:57:15;15.25;;;11.02;;
25023;SDS011;13033;50.936;5.334;2023-07-22T03:59:41;21.35;;;12.32;;
25023;SDS011;13033;50.936;5.334;2023-07-22T04:02:07;18.55;;;11.82;;
25023;SDS011;13033;50.936;5.334;2023-07-22T04:04:32;17.30;;;11.50;;
25023;SDS011;13033;50.936;5.334;2023-07-22T04:06:58;18.33;;;11.60;;
25023;SDS011;13033;50.936;5.334;2023-07-22T04:09:25;20.00;;;12.73;;
25023;SDS011;13033;50.936;5.334;2023-07-22T04:11:52;19.55;;;11.65;;
25023;SDS011;13033;50.936;5.334;2023-07-22T04:14:17;20.60;;;11.38;;
25023;SDS011;13033;50.936;5.334;2023-07-22T04:16:43;18.60;;;11.32;;
25023;SDS011;13033;50.936;5.334;2023-07-22T04:19:09;25.48;;;12.48;;
25023;SDS011;13033;50.936;5.334;2023-07-22T04:21:34;17.38;;;11.60;;
25023;SDS011;13033;50.936;5.334;2023-07-22T04:24:00;18.85;;;11.23;;
25023;SDS011;13033;50.936;5.334;2023-07-22T04:26:25;18.30;;;11.68;;
25023;SDS011;13033;50.936;5.334;2023-07-22T04:28:51;24.55;;;12.52;;
25023;SDS011;13033;50.936;5.334;2023-07-22T04:31:17;17.33;;;12.35;;
25023;SDS011;13033;50.936;5.334;2023-07-22T04:33:43;20.88;;;12.30;;
25023;SDS011;13033;50.936;5.334;2023-07-22T04:36:09;19.90;;;11.93;;
25023;SDS011;13033;50.936;5.334;2023-07-22T04:38:35;18.70;;;11.52;;
25023;SDS011;13033;50.936;5.334;2023-07-22T04:41:02;19.55;;;12.32;;
25023;SDS011;13033;50.936;5.334;2023-07-22T04:43:28;18.58;;;12.45;;
25023;SDS011;13033;50.936;5.334;2023-07-22T04:45:54;18.45;;;11.50;;
25023;SDS011;13033;50.936;5.334;2023-07-22T04:48:20;19.45;;;12.32;;
25023;SDS011;13033;50.936;5.334;2023-07-22T04:50:49;20.85;;;11.45;;
25023;SDS011;13033;50.936;5.334;2023-07-22T04:53:16;19.95;;;12.52;;
25023;SDS011;13033;50.936;5.334;2023-07-22T04:55:42;21.55;;;12.90;;
25023;SDS011;13033;50.936;5.334;2023-07-22T04:58:08;20.95;;;12.55;;
25023;SDS011;13033;50.936;5.334;2023-07-22T05:00:35;22.48;;;13.50;;
25023;SDS011;13033;50.936;5.334;2023-07-22T05:03:02;21.25;;;13.75;;
25023;SDS011;13033;50.936;5.334;2023-07-22T05:05:29;18.30;;;12.35;;
25023;SDS011;13033;50.936;5.334;2023-07-22T05:07:54;23.27;;;13.20;;
25023;SDS011;13033;50.936;5.334;2023-07-22T05:10:20;20.13;;;12.75;;
25023;SDS011;13033;50.936;5.334;2023-07-22T05:12:46;19.10;;;12.20;;
25023;SDS011;13033;50.936;5.334;2023-07-22T05:15:12;18.35;;;12.43;;
25023;SDS011;13033;50.936;5.334;2023-07-22T05:17:38;18.98;;;11.77;;
25023;SDS011;13033;50.936;5.334;2023-07-22T05:20:05;20.75;;;11.95;;
25023;SDS011;13033;50.936;5.334;2023-07-22T05:22:34;21.20;;;12.55;;
25023;SDS011;13033;50.936;5.334;2023-07-22T05:25:00;22.88;;;12.95;;
25023;SDS011;13033;50.936;5.334;2023-07-22T05:27:25;19.58;;;12.32;;
25023;SDS011;13033;50.936;5.334;2023-07-22T05:29:51;20.98;;;12.80;;
25023;SDS011;13033;50.936;5.334;2023-07-22T05:32:16;21.17;;;12.32;;
25023;SDS011;13033;50.936;5.334;2023-07-22T05:34:42;18.88;;;12.75;;
25023;SDS011;13033;50.936;5.334;2023-07-22T05:37:08;20.05;;;12.95;;
25023;SDS011;13033;50.936;5.334;2023-07-22T05:39:33;20.27;;;12.13;;
25023;SDS011;13033;50.936;5.334;2023-07-22T05:41:59;24.05;;;12.75;;
25023;SDS011;13033;50.936;5.334;2023-07-22T05:44:25;19.33;;;12.05;;
25023;SDS011;13033;50.936;5.334;2023-07-22T05:46:51;22.48;;;12.68;;
25023;SDS011;13033;50.936;5.334;2023-07-22T05:49:16;18.35;;;11.60;;
25023;SDS011;13033;50.936;5.334;2023-07-22T05:51:42;17.38;;;11.27;;
25023;SDS011;13033;50.936;5.334;2023-07-22T05:54:07;20.25;;;11.35;;
25023;SDS011;13033;50.936;5.334;2023-07-22T05:56:33;20.95;;;12.50;;
25023;SDS011;13033;50.936;5.334;2023-07-22T05:58:59;20.42;;;12.38;;
25023;SDS011;13033;50.936;5.334;2023-07-22T06:01:24;22.25;;;12.68;;
25023;SDS011;13033;50.936;5.334;2023-07-22T06:03:50;22.10;;;12.23;;
25023;SDS011;13033;50.936;5.334;2023-07-22T06:06:16;22.40;;;12.27;;
25023;SDS011;13033;50.936;5.334;2023-07-22T06:08:42;18.02;;;11.57;;
25023;SDS011;13033;50.936;5.334;2023-07-22T06:11:08;23.52;;;12.52;;
25023;SDS011;13033;50.936;5.334;2023-07-22T06:13:33;20.80;;;11.85;;
25023;SDS011;13033;50.936;5.334;2023-07-22T06:15:59;23.02;;;12.50;;
25023;SDS011;13033;50.936;5.334;2023-07-22T06:18:24;21.75;;;11.77;;
25023;SDS011;13033;50.936;5.334;2023-07-22T06:20:50;20.08;;;11.68;;
25023;SDS011;13033;50.936;5.334;2023-07-22T06:23:16;22.05;;;12.50;;
25023;SDS011;13033;50.936;5.334;2023-07-22T06:25:42;18.90;;;12.07;;
25023;SDS011;13033;50.936;5.334;2023-07-22T06:28:08;25.15;;;12.25;;
25023;SDS011;13033;50.936;5.334;2023-07-22T06:30:34;20.25;;;11.35;;
25023;SDS011;13033;50.936;5.334;2023-07-22T06:32:59;26.98;;;12.40;;
25023;SDS011;13033;50.936;5.334;2023-07-22T06:35:25;21.40;;;11.50;;
25023;SDS011;13033;50.936;5.334;2023-07-22T06:37:50;22.60;;;12.07;;
25023;SDS011;13033;50.936;5.334;2023-07-22T06:40:16;20.08;;;11.52;;
25023;SDS011;13033;50.936;5.334;2023-07-22T06:42:42;22.02;;;11.70;;
25023;SDS011;13033;50.936;5.334;2023-07-22T06:45:08;21.92;;;11.20;;
25023;SDS011;13033;50.936;5.334;2023-07-22T06:47:34;21.42;;;10.55;;
25023;SDS011;13033;50.936;5.334;2023-07-22T06:50:01;23.75;;;11.00;;
25023;SDS011;13033;50.936;5.334;2023-07-22T06:52:33;18.10;;;11.15;;
25023;SDS011;13033;50.936;5.334;2023-07-22T06:54:59;24.80;;;11.20;;
25023;SDS011;13033;50.936;5.334;2023-07-22T06:57:24;17.38;;;10.95;;
25023;SDS011;13033;50.936;5.334;2023-07-22T06:59:51;19.58;;;11.30;;
25023;SDS011;13033;50.936;5.334;2023-07-22T07:02:18;23.60;;;11.57;;
25023;SDS011;13033;50.936;5.334;2023-07-22T07:04:44;22.60;;;11.43;;
25023;SDS011;13033;50.936;5.334;2023-07-22T07:07:10;21.55;;;11.25;;
25023;SDS011;13033;50.936;5.334;2023-07-22T07:09:37;19.98;;;11.07;;
25023;SDS011;13033;50.936;5.334;2023-07-22T07:12:03;18.73;;;10.57;;
25023;SDS011;13033;50.936;5.334;2023-07-22T07:14:29;17.77;;;10.18;;
25023;SDS011;13033;50.936;5.334;2023-07-22T07:16:55;21.73;;;10.50;;
25023;SDS011;13033;50.936;5.334;2023-07-22T07:19:21;22.17;;;10.82;;
25023;SDS011;13033;50.936;5.334;2023-07-22T07:21:46;18.60;;;9.70;;
25023;SDS011;13033;50.936;5.334;2023-07-22T07:24:12;19.05;;;10.25;;
25023;SDS011;13033;50.936;5.334;2023-07-22T07:26:38;16.05;;;10.07;;
25023;SDS011;13033;50.936;5.334;2023-07-22T07:29:04;22.45;;;9.40;;
25023;SDS011;13033;50.936;5.334;2023-07-22T07:31:29;19.15;;;8.90;;
25023;SDS011;13033;50.936;5.334;2023-07-22T07:33:55;18.10;;;9.95;;
25023;SDS011;13033;50.936;5.334;2023-07-22T07:36:21;16.92;;;9.02;;
25023;SDS011;13033;50.936;5.334;2023-07-22T07:38:46;18.40;;;9.60;;
25023;SDS011;13033;50.936;5.334;2023-07-22T07:41:12;21.73;;;9.07;;
25023;SDS011;13033;50.936;5.334;2023-07-22T07:43:39;17.08;;;8.98;;
25023;SDS011;13033;50.936;5.334;2023-07-22T07:46:41;19.38;;;9.00;;
25023;SDS011;13033;50.936;5.334;2023-07-22T07:49:00;19.58;;;8.77;;
25023;SDS011;13033;50.936;5.334;2023-07-22T07:51:27;14.88;;;8.32;;
25023;SDS011;13033;50.936;5.334;2023-07-22T07:53:54;14.70;;;7.88;;
25023;SDS011;13033;50.936;5.334;2023-07-22T07:56:20;13.35;;;7.97;;
25023;SDS011;13033;50.936;5.334;2023-07-22T07:58:47;13.55;;;7.32;;
25023;SDS011;13033;50.936;5.334;2023-07-22T08:01:14;15.63;;;7.85;;
25023;SDS011;13033;50.936;5.334;2023-07-22T08:03:41;15.70;;;7.82;;
25023;SDS011;13033;50.936;5.334;2023-07-22T08:06:08;13.57;;;7.13;;
25023;SDS011;13033;50.936;5.334;2023-07-22T08:08:34;14.23;;;6.95;;
25023;SDS011;13033;50.936;5.334;2023-07-22T08:11:01;14.95;;;7.75;;
25023;SDS011;13033;50.936;5.334;2023-07-22T08:13:28;16.27;;;7.43;;
25023;SDS011;13033;50.936;5.334;2023-07-22T08:15:56;14.95;;;7.25;;
25023;SDS011;13033;50.936;5.334;2023-07-22T08:18:42;21.63;;;7.20;;
25023;SDS011;13033;50.936;5.334;2023-07-22T08:21:08;12.25;;;6.22;;
25023;SDS011;13033;50.936;5.334;2023-07-22T08:23:34;10.38;;;5.82;;
25023;SDS011;13033;50.936;5.334;2023-07-22T08:26:01;10.10;;;5.60;;
25023;SDS011;13033;50.936;5.334;2023-07-22T08:28:29;10.73;;;5.80;;
25023;SDS011;13033;50.936;5.334;2023-07-22T08:30:55;11.65;;;5.40;;
25023;SDS011;13033;50.936;5.334;2023-07-22T08:33:22;10.05;;;5.05;;
25023;SDS011;13033;50.936;5.334;2023-07-22T08:35:48;11.85;;;5.25;;
25023;SDS011;13033;50.936;5.334;2023-07-22T08:38:15;9.80;;;4.85;;
25023;SDS011;13033;50.936;5.334;2023-07-22T08:40:41;10.52;;;4.47;;
25023;SDS011;13033;50.936;5.334;2023-07-22T08:43:08;12.30;;;4.65;;
25023;SDS011;13033;50.936;5.334;2023-07-22T08:45:35;10.13;;;4.68;;
25023;SDS011;13033;50.936;5.334;2023-07-22T08:48:06;9.82;;;4.05;;
25023;SDS011;13033;50.936;5.334;2023-07-22T08:50:55;9.85;;;4.75;;
25023;SDS011;13033;50.936;5.334;2023-07-22T08:53:23;10.48;;;4.53;;
25023;SDS011;13033;50.936;5.334;2023-07-22T08:55:50;12.00;;;4.97;;
25023;SDS011;13033;50.936;5.334;2023-07-22T08:58:16;7.18;;;4.63;;
25023;SDS011;13033;50.936;5.334;2023-07-22T09:00:43;11.15;;;4.20;;
25023;SDS011;13033;50.936;5.334;2023-07-22T09:03:09;8.52;;;4.15;;
25023;SDS011;13033;50.936;5.334;2023-07-22T09:05:36;10.05;;;4.80;;
25023;SDS011;13033;50.936;5.334;2023-07-22T09:08:02;9.52;;;4.40;;
25023;SDS011;13033;50.936;5.334;2023-07-22T09:10:29;11.07;;;5.00;;
25023;SDS011;13033;50.936;5.334;2023-07-22T09:12:55;9.75;;;4.35;;
25023;SDS011;13033;50.936;5.334;2023-07-22T09:15:22;10.10;;;5.22;;
25023;SDS011;13033;50.936;5.334;2023-07-22T09:17:48;7.68;;;4.05;;
25023;SDS011;13033;50.936;5.334;2023-07-22T09:20:14;11.07;;;4.63;;
25023;SDS011;13033;50.936;5.334;2023-07-22T09:22:43;8.27;;;4.35;;
25023;SDS011;13033;50.936;5.334;2023-07-22T09:25:14;7.13;;;3.17;;
25023;SDS011;13033;50.936;5.334;2023-07-22T09:27:42;6.97;;;2.92;;
25023;SDS011;13033;50.936;5.334;2023-07-22T09:33:00;8.90;;;2.70;;
25023;SDS011;13033;50.936;5.334;2023-07-22T09:35:28;5.47;;;3.00;;
25023;SDS011;13033;50.936;5.334;2023-07-22T09:37:55;6.57;;;2.70;;
25023;SDS011;13033;50.936;5.334;2023-07-22T09:40:27;5.57;;;2.55;;
25023;SDS011;13033;50.936;5.334;2023-07-22T09:42:54;4.55;;;2.30;;
25023;SDS011;13033;50.936;5.334;2023-07-22T09:45:22;6.72;;;2.47;;
25023;SDS011;13033;50.936;5.334;2023-07-22T09:47:49;6.15;;;2.95;;
25023;SDS011;13033;50.936;5.334;2023-07-22T09:50:18;3.42;;;2.47;;
25023;SDS011;13033;50.936;5.334;2023-07-22T09:55:23;4.95;;;2.80;;
25023;SDS011;13033;50.936;5.334;2023-07-22T09:58:00;5.57;;;2.85;;
25023;SDS011;13033;50.936;5.334;2023-07-22T10:00:31;2.65;;;2.30;;
25023;SDS011;13033;50.936;5.334;2023-07-22T10:02:59;13.30;;;3.40;;
25023;SDS011;13033;50.936;5.334;2023-07-22T10:05:27;8.07;;;2.95;;
25023;SDS011;13033;50.936;5.334;2023-07-22T10:07:57;5.47;;;2.90;;
25023;SDS011;13033;50.936;5.334;2023-07-22T10:10:25;7.18;;;2.80;;
25023;SDS011;13033;50.936;5.334;2023-07-22T10:12:55;6.20;;;2.43;;
25023;SDS011;13033;50.936;5.334;2023-07-22T10:15:22;5.57;;;2.50;;
25023;SDS011;13033;50.936;5.334;2023-07-22T10:17:49;3.80;;;2.42;;
25023;SDS011;13033;50.936;5.334;2023-07-22T10:20:16;8.95;;;2.63;;
25023;SDS011;13033;50.936;5.334;2023-07-22T10:22:45;5.53;;;2.55;;
25023;SDS011;13033;50.936;5.334;2023-07-22T10:25:12;6.15;;;2.80;;
25023;SDS011;13033;50.936;5.334;2023-07-22T10:27:42;4.38;;;2.60;;
25023;SDS011;13033;50.936;5.334;2023-07-22T10:30:09;4.50;;;2.35;;
25023;SDS011;13033;50.936;5.334;2023-07-22T10:32:40;4.68;;;2.40;;
25023;SDS011;13033;50.936;5.334;2023-07-22T10:35:11;4.50;;;2.00;;
25023;SDS011;13033;50.936;5.334;2023-07-22T10:37:42;4.55;;;1.95;;
25023;SDS011;13033;50.936;5.334;2023-07-22T10:40:17;3.53;;;2.03;;
25023;SDS011;13033;50.936;5.334;2023-07-22T10:42:50;4.68;;;2.22;;
25023;SDS011;13033;50.936;5.334;2023-07-22T10:45:28;3.20;;;1.80;;
25023;SDS011;13033;50.936;5.334;2023-07-22T10:48:07;3.53;;;1.85;;
25023;SDS011;13033;50.936;5.334;2023-07-22T10:50:41;5.28;;;2.03;;
25023;SDS011;13033;50.936;5.334;2023-07-22T10:53:21;4.22;;;1.70;;
25023;SDS011;13033;50.936;5.334;2023-07-22T11:11:58;4.05;;;2.33;;
25023;SDS011;13033;50.936;5.334;2023-07-22T11:14:25;5.10;;;2.22;;
25023;SDS011;13033;50.936;5.334;2023-07-22T11:16:52;4.05;;;2.17;;
25023;SDS011;13033;50.936;5.334;2023-07-22T11:19:19;4.88;;;2.47;;
25023;SDS011;13033;50.936;5.334;2023-07-22T11:21:47;5.13;;;2.47;;
25023;SDS011;13033;50.936;5.334;2023-07-22T11:24:14;4.07;;;2.45;;
25023;SDS011;13033;50.936;5.334;2023-07-22T11:26:40;4.53;;;2.45;;
25023;SDS011;13033;50.936;5.334;2023-07-22T11:29:06;6.03;;;2.60;;
25023;SDS011;13033;50.936;5.334;2023-07-22T11:31:33;7.57;;;2.13;;
25023;SDS011;13033;50.936;5.334;2023-07-22T11:34:07;5.13;;;2.30;;
25023;SDS011;13033;50.936;5.334;2023-07-22T11:36:34;4.60;;;2.50;;
25023;SDS011;13033;50.936;5.334;2023-07-22T11:39:04;4.65;;;2.50;;
25023;SDS011;13033;50.936;5.334;2023-07-22T11:41:32;4.45;;;2.30;;
25023;SDS011;13033;50.936;5.334;2023-07-22T11:43:58;3.10;;;2.28;;
25023;SDS011;13033;50.936;5.334;2023-07-22T11:46:33;5.22;;;2.40;;
25023;SDS011;13033;50.936;5.334;2023-07-22T11:49:00;4.60;;;2.40;;
25023;SDS011;13033;50.936;5.334;2023-07-22T11:51:27;3.92;;;2.33;;
25023;SDS011;13033;50.936;5.334;2023-07-22T11:53:54;3.47;;;2.03;;
25023;SDS011;13033;50.936;5.334;2023-07-22T11:58:53;3.63;;;2.40;;
25023;SDS011;13033;50.936;5.334;2023-07-22T12:01:20;3.63;;;1.90;;
25023;SDS011;13033;50.936;5.334;2023-07-22T12:03:46;5.03;;;2.20;;
25023;SDS011;13033;50.936;5.334;2023-07-22T12:06:13;4.07;;;2.10;;
25023;SDS011;13033;50.936;5.334;2023-07-22T12:08:43;2.80;;;1.83;;
25023;SDS011;13033;50.936;5.334;2023-07-22T12:11:19;3.47;;;2.10;;
25023;SDS011;13033;50.936;5.334;2023-07-22T12:13:46;4.15;;;2.05;;
25023;SDS011;13033;50.936;5.334;2023-07-22T12:16:20;4.03;;;2.05;;
25023;SDS011;13033;50.936;5.334;2023-07-22T12:18:49;4.72;;;1.75;;
25023;SDS011;13033;50.936;5.334;2023-07-22T12:21:15;3.88;;;1.80;;
25023;SDS011;13033;50.936;5.334;2023-07-22T12:23:41;3.58;;;1.50;;
25023;SDS011;13033;50.936;5.334;2023-07-22T12:26:08;3.45;;;1.83;;
25023;SDS011;13033;50.936;5.334;2023-07-22T12:28:34;3.60;;;1.60;;
25023;SDS011;13033;50.936;5.334;2023-07-22T12:30:59;2.35;;;1.73;;
25023;SDS011;13033;50.936;5.334;2023-07-22T12:33:25;9.02;;;2.95;;
25023;SDS011;13033;50.936;5.334;2023-07-22T12:35:55;5.43;;;1.95;;
25023;SDS011;13033;50.936;5.334;2023-07-22T12:38:21;5.18;;;2.20;;
25023;SDS011;13033;50.936;5.334;2023-07-22T12:40:47;3.42;;;1.95;;
25023;SDS011;13033;50.936;5.334;2023-07-22T12:43:13;3.42;;;2.08;;
25023;SDS011;13033;50.936;5.334;2023-07-22T12:45:39;3.28;;;2.17;;
25023;SDS011;13033;50.936;5.334;2023-07-22T12:48:04;3.05;;;1.73;;
25023;SDS011;13033;50.936;5.334;2023-07-22T12:50:30;4.13;;;2.00;;
25023;SDS011;13033;50.936;5.334;2023-07-22T12:52:57;4.70;;;2.13;;
25023;SDS011;13033;50.936;5.334;2023-07-22T12:55:23;4.30;;;1.63;;
25023;SDS011;13033;50.936;5.334;2023-07-22T12:57:49;5.68;;;2.15;;
25023;SDS011;13033;50.936;5.334;2023-07-22T13:00:15;3.55;;;2.30;;
25023;SDS011;13033;50.936;5.334;2023-07-22T13:02:41;2.78;;;2.20;;
25023;SDS011;13033;50.936;5.334;2023-07-22T13:05:06;6.80;;;2.40;;
25023;SDS011;13033;50.936;5.334;2023-07-22T13:07:32;3.67;;;2.22;;
25023;SDS011;13033;50.936;5.334;2023-07-22T13:09:58;5.28;;;2.38;;
25023;SDS011;13033;50.936;5.334;2023-07-22T13:12:28;5.72;;;2.22;;
25023;SDS011;13033;50.936;5.334;2023-07-22T13:14:54;3.40;;;2.30;;
25023;SDS011;13033;50.936;5.334;2023-07-22T13:17:20;3.15;;;2.05;;
25023;SDS011;13033;50.936;5.334;2023-07-22T13:19:46;7.43;;;2.47;;
25023;SDS011;13033;50.936;5.334;2023-07-22T13:22:12;3.58;;;2.33;;
25023;SDS011;13033;50.936;5.334;2023-07-22T13:24:38;3.28;;;2.22;;
25023;SDS011;13033;50.936;5.334;2023-07-22T13:27:03;3.88;;;2.42;;
25023;SDS011;13033;50.936;5.334;2023-07-22T13:29:29;3.42;;;2.50;;
25023;SDS011;13033;50.936;5.334;2023-07-22T13:31:55;4.95;;;2.30;;
25023;SDS011;13033;50.936;5.334;2023-07-22T13:34:21;5.38;;;2.33;;
25023;SDS011;13033;50.936;5.334;2023-07-22T13:36:47;4.57;;;2.80;;
25023;SDS011;13033;50.936;5.334;2023-07-22T13:39:12;4.97;;;2.42;;
25023;SDS011;13033;50.936;5.334;2023-07-22T13:41:38;4.20;;;2.83;;
25023;SDS011;13033;50.936;5.334;2023-07-22T13:44:04;5.32;;;2.92;;
25023;SDS011;13033;50.936;5.334;2023-07-22T13:46:30;4.03;;;2.67;;
25023;SDS011;13033;50.936;5.334;2023-07-22T13:48:56;4.32;;;2.60;;
25023;SDS011;13033;50.936;5.334;2023-07-22T13:51:21;5.13;;;2.60;;
25023;SDS011;13033;50.936;5.334;2023-07-22T13:53:47;6.82;;;2.90;;
25023;SDS011;13033;50.936;5.334;2023-07-22T13:56:13;5.65;;;2.65;;
25023;SDS011;13033;50.936;5.334;2023-07-22T13:58:38;5.40;;;2.75;;
25023;SDS011;13033;50.936;5.334;2023-07-22T14:01:04;5.55;;;2.70;;
25023;SDS011;13033;50.936;5.334;2023-07-22T14:03:30;5.10;;;2.92;;
25023;SDS011;13033;50.936;5.334;2023-07-22T14:05:55;4.45;;;2.50;;
25023;SDS011;13033;50.936;5.334;2023-07-22T14:08:21;4.75;;;2.80;;
25023;SDS011;13033;50.936;5.334;2023-07-22T14:10:47;4.97;;;2.63;;
25023;SDS011;13033;50.936;5.334;2023-07-22T14:13:13;7.00;;;3.17;;
25023;SDS011;13033;50.936;5.334;2023-07-22T14:15:38;4.93;;;2.63;;
25023;SDS011;13033;50.936;5.334;2023-07-22T14:18:05;6.90;;;3.15;;
25023;SDS011;13033;50.936;5.334;2023-07-22T14:20:31;7.03;;;2.83;;
25023;SDS011;13033;50.936;5.334;2023-07-22T14:22:57;5.55;;;2.55;;
25023;SDS011;13033;50.936;5.334;2023-07-22T14:25:23;3.63;;;2.40;;
25023;SDS011;13033;50.936;5.334;2023-07-22T14:27:48;3.85;;;2.58;;
25023;SDS011;13033;50.936;5.334;2023-07-22T14:30:14;3.33;;;2.22;;
25023;SDS011;13033;50.936;5.334;2023-07-22T14:32:40;4.13;;;2.40;;
25023;SDS011;13033;50.936;5.334;2023-07-22T14:35:05;4.80;;;2.50;;
25023;SDS011;13033;50.936;5.334;2023-07-22T14:37:31;9.20;;;2.25;;
25023;SDS011;13033;50.936;5.334;2023-07-22T14:39:57;9.88;;;2.40;;
25023;SDS011;13033;50.936;5.334;2023-07-22T14:42:23;4.00;;;1.60;;
25023;SDS011;13033;50.936;5.334;2023-07-22T14:44:48;3.17;;;2.20;;
25023;SDS011;13033;50.936;5.334;2023-07-22T14:47:14;4.45;;;2.10;;
25023;SDS011;13033;50.936;5.334;2023-07-22T14:49:40;5.88;;;2.15;;
25023;SDS011;13033;50.936;5.334;2023-07-22T14:52:05;4.53;;;2.50;;
25023;SDS011;13033;50.936;5.334;2023-07-22T14:54:32;3.40;;;1.80;;
25023;SDS011;13033;50.936;5.334;2023-07-22T14:56:58;5.72;;;2.17;;
25023;SDS011;13033;50.936;5.334;2023-07-22T14:59:24;3.55;;;1.95;;